sensor_id;sensor_type;location;lat;lon;timestamp;noise_LAeq;noise_LA_min;noise_LA_max;noise_LA01;noise_LA95
37833;Laerm;23678;48.778;9.160;2023-06-24T00:00:43;38.54;30.89;51.77;;
37833;Laerm;23678;48.778;9.160;2023-06-24T00:03:32;37.07;26.91;45.20;;
37833;Laerm;23678;48.778;9.160;2023-06-24T00:06:21;39.69;31.68;52.00;;
37833;Laerm;23678;48.778;9.160;2023-06-24T00:09:06;37.16;29.92;41.61;;
37833;Laerm;23678;48.778;9.160;2023-06-24T00:11:51;36.99;26.91;42.29;;
37833;Laerm;23678;48.778;9.160;2023-06-24T00:14:35;36.70;29.92;39.81;;
37833;Laerm;23678;48.778;9.160;2023-06-24T00:17:20;36.70;28.67;41.22;;
37833;Laerm;23678;48.778;9.160;2023-06-24T00:20:04;36.81;29.57;40.03;;
37833;Laerm;23678;48.778;9.160;2023-06-24T00:22:51;36.80;23.90;43.44;;
37833;Laerm;23678;48.778;9.160;2023-06-24T00:25:35;36.83;30.89;45.45;;
37833;Laerm;23678;48.778;9.160;2023-06-24T00:28:19;36.66;29.92;40.13;;
37833;Laerm;23678;48.778;9.160;2023-06-24T00:31:04;39.51;29.92;53.57;;
37833;Laerm;23678;48.778;9.160;2023-06-24T00:33:48;36.62;28.67;39.70;;
37833;Laerm;23678;48.778;9.160;2023-06-24T00:36:33;36.81;29.92;43.29;;
37833;Laerm;23678;48.778;9.160;2023-06-24T00:39:18;37.10;28.67;43.14;;
37833;Laerm;23678;48.778;9.160;2023-06-24T00:42:02;36.93;30.89;42.65;;
37833;Laerm;23678;48.778;9.160;2023-06-24T00:44:46;36.65;29.92;39.81;;
37833;Laerm;23678;48.778;9.160;2023-06-24T00:47:31;38.47;29.92;52.97;;
37833;Laerm;23678;48.778;9.160;2023-06-24T00:50:15;36.58;28.67;39.70;;
37833;Laerm;23678;48.778;9.160;2023-06-24T00:52:59;36.87;28.67;40.13;;
37833;Laerm;23678;48.778;9.160;2023-06-24T00:55:46;37.04;31.33;40.62;;
37833;Laerm;23678;48.778;9.160;2023-06-24T00:58:31;36.68;29.92;39.70;;
37833;Laerm;23678;48.778;9.160;2023-06-24T01:01:16;36.61;28.67;42.69;;
37833;Laerm;23678;48.778;9.160;2023-06-24T01:04:01;36.70;26.91;41.22;;
37833;Laerm;23678;48.778;9.160;2023-06-24T01:06:45;36.61;29.92;39.58;;
37833;Laerm;23678;48.778;9.160;2023-06-24T01:09:29;36.71;28.67;40.45;;
37833;Laerm;23678;48.778;9.160;2023-06-24T01:12:14;37.61;28.67;44.51;;
37833;Laerm;23678;48.778;9.160;2023-06-24T01:14:57;37.52;29.92;47.22;;
37833;Laerm;23678;48.778;9.160;2023-06-24T01:17:48;36.90;28.67;48.26;;
37833;Laerm;23678;48.778;9.160;2023-06-24T01:23:29;36.86;30.89;40.98;;
37833;Laerm;23678;48.778;9.160;2023-06-24T01:32:24;36.76;28.67;39.92;;
37833;Laerm;23678;48.778;9.160;2023-06-24T01:35:12;36.76;26.56;40.23;;
37833;Laerm;23678;48.778;9.160;2023-06-24T01:37:59;36.72;29.92;40.43;;
37833;Laerm;23678;48.778;9.160;2023-06-24T01:40:45;36.70;29.92;39.81;;
37833;Laerm;23678;48.778;9.160;2023-06-24T01:43:29;36.89;30.89;41.30;;
37833;Laerm;23678;48.778;9.160;2023-06-24T01:46:15;36.75;29.92;39.46;;
37833;Laerm;23678;48.778;9.160;2023-06-24T01:49:01;36.70;31.68;40.23;;
37833;Laerm;23678;48.778;9.160;2023-06-24T01:51:47;36.91;31.33;41.61;;
37833;Laerm;23678;48.778;9.160;2023-06-24T01:54:32;36.79;28.67;39.92;;
37833;Laerm;23678;48.778;9.160;2023-06-24T01:57:18;37.18;26.91;41.22;;
37833;Laerm;23678;48.778;9.160;2023-06-24T02:00:04;36.82;29.92;42.82;;
37833;Laerm;23678;48.778;9.160;2023-06-24T02:02:51;36.67;29.92;39.58;;
37833;Laerm;23678;48.778;9.160;2023-06-24T02:05:37;38.43;30.89;49.97;;
37833;Laerm;23678;48.778;9.160;2023-06-24T02:08:25;40.87;30.89;55.44;;
37833;Laerm;23678;48.778;9.160;2023-06-24T02:11:10;41.90;29.92;55.67;;
37833;Laerm;23678;48.778;9.160;2023-06-24T02:13:56;41.61;30.89;54.91;;
37833;Laerm;23678;48.778;9.160;2023-06-24T02:16:41;38.00;30.89;44.97;;
37833;Laerm;23678;48.778;9.160;2023-06-24T02:19:29;38.13;31.68;44.69;;
37833;Laerm;23678;48.778;9.160;2023-06-24T02:22:13;41.12;30.89;58.46;;
37833;Laerm;23678;48.778;9.160;2023-06-24T02:24:58;42.58;29.92;59.13;;
37833;Laerm;23678;48.778;9.160;2023-06-24T02:27:42;41.47;30.89;54.59;;
37833;Laerm;23678;48.778;9.160;2023-06-24T02:30:27;41.55;31.68;56.66;;
37833;Laerm;23678;48.778;9.160;2023-06-24T02:33:12;39.01;32.35;54.07;;
37833;Laerm;23678;48.778;9.160;2023-06-24T02:35:56;40.59;28.67;55.22;;
37833;Laerm;23678;48.778;9.160;2023-06-24T02:38:40;39.77;31.33;54.77;;
37833;Laerm;23678;48.778;9.160;2023-06-24T02:41:24;41.94;30.89;57.70;;
37833;Laerm;23678;48.778;9.160;2023-06-24T02:44:08;44.69;29.92;62.33;;
37833;Laerm;23678;48.778;9.160;2023-06-24T02:46:52;38.68;31.68;49.06;;
37833;Laerm;23678;48.778;9.160;2023-06-24T02:49:37;39.91;31.68;51.58;;
37833;Laerm;23678;48.778;9.160;2023-06-24T02:52:21;38.47;29.92;49.90;;
37833;Laerm;23678;48.778;9.160;2023-06-24T02:55:05;39.38;30.89;51.72;;
37833;Laerm;23678;48.778;9.160;2023-06-24T02:57:50;38.08;28.67;43.81;;
37833;Laerm;23678;48.778;9.160;2023-06-24T03:00:38;37.54;29.92;49.32;;
37833;Laerm;23678;48.778;9.160;2023-06-24T03:03:22;37.87;28.67;42.03;;
37833;Laerm;23678;48.778;9.160;2023-06-24T03:06:06;38.76;30.89;49.35;;
37833;Laerm;23678;48.778;9.160;2023-06-24T03:08:50;36.79;28.67;39.70;;
37833;Laerm;23678;48.778;9.160;2023-06-24T03:11:41;36.79;28.67;39.92;;
37833;Laerm;23678;48.778;9.160;2023-06-24T03:14:25;36.82;28.67;42.41;;
37833;Laerm;23678;48.778;9.160;2023-06-24T03:17:09;36.90;29.92;39.70;;
37833;Laerm;23678;48.778;9.160;2023-06-24T03:19:53;37.47;31.68;42.71;;
37833;Laerm;23678;48.778;9.160;2023-06-24T03:22:39;37.42;32.00;42.65;;
37833;Laerm;23678;48.778;9.160;2023-06-24T03:25:23;37.22;29.92;40.98;;
37833;Laerm;23678;48.778;9.160;2023-06-24T03:28:07;37.42;31.68;43.39;;
37833;Laerm;23678;48.778;9.160;2023-06-24T03:30:52;37.86;28.67;42.09;;
37833;Laerm;23678;48.778;9.160;2023-06-24T03:33:36;36.98;31.68;42.13;;
37833;Laerm;23678;48.778;9.160;2023-06-24T03:36:20;37.05;31.68;43.54;;
37833;Laerm;23678;48.778;9.160;2023-06-24T03:39:04;37.95;31.68;49.59;;
37833;Laerm;23678;48.778;9.160;2023-06-24T03:41:48;37.64;28.67;50.76;;
37833;Laerm;23678;48.778;9.160;2023-06-24T03:44:33;40.00;31.68;44.43;;
37833;Laerm;23678;48.778;9.160;2023-06-24T03:47:17;37.37;30.89;43.04;;
37833;Laerm;23678;48.778;9.160;2023-06-24T03:50:00;37.08;29.92;40.23;;
37833;Laerm;23678;48.778;9.160;2023-06-24T03:52:45;37.24;31.33;44.23;;
37833;Laerm;23678;48.778;9.160;2023-06-24T03:55:29;37.06;30.89;45.30;;
37833;Laerm;23678;48.778;9.160;2023-06-24T03:58:12;37.68;29.92;44.87;;
37833;Laerm;23678;48.778;9.160;2023-06-24T04:00:58;36.80;30.89;39.81;;
37833;Laerm;23678;48.778;9.160;2023-06-24T04:03:43;36.90;26.91;40.62;;
37833;Laerm;23678;48.778;9.160;2023-06-24T04:06:27;37.24;29.92;41.46;;
37833;Laerm;23678;48.778;9.160;2023-06-24T04:09:11;37.23;29.92;47.10;;
37833;Laerm;23678;48.778;9.160;2023-06-24T04:11:55;37.05;29.92;44.07;;
37833;Laerm;23678;48.778;9.160;2023-06-24T04:14:39;37.71;28.67;42.47;;
37833;Laerm;23678;48.778;9.160;2023-06-24T04:17:22;37.24;29.92;41.46;;
37833;Laerm;23678;48.778;9.160;2023-06-24T04:20:07;37.95;29.92;48.08;;
37833;Laerm;23678;48.778;9.160;2023-06-24T04:22:54;38.17;29.92;42.93;;
37833;Laerm;23678;48.778;9.160;2023-06-24T04:25:38;37.35;30.89;41.61;;
37833;Laerm;23678;48.778;9.160;2023-06-24T04:28:21;37.46;29.92;41.06;;
37833;Laerm;23678;48.778;9.160;2023-06-24T04:31:05;38.41;30.89;52.43;;
37833;Laerm;23678;48.778;9.160;2023-06-24T04:33:49;38.23;31.68;44.66;;
37833;Laerm;23678;48.778;9.160;2023-06-24T04:36:33;37.88;29.92;42.71;;
37833;Laerm;23678;48.778;9.160;2023-06-24T04:39:19;36.86;30.89;40.80;;
37833;Laerm;23678;48.778;9.160;2023-06-24T04:42:03;38.46;31.68;42.65;;
37833;Laerm;23678;48.778;9.160;2023-06-24T04:44:46;37.45;29.92;48.21;;
37833;Laerm;23678;48.778;9.160;2023-06-24T04:47:34;38.06;29.92;47.18;;
37833;Laerm;23678;48.778;9.160;2023-06-24T04:50:19;37.67;30.89;42.53;;
37833;Laerm;23678;48.778;9.160;2023-06-24T04:53:03;37.96;30.89;42.82;;
37833;Laerm;23678;48.778;9.160;2023-06-24T04:55:47;38.00;29.92;48.77;;
37833;Laerm;23678;48.778;9.160;2023-06-24T04:58:30;37.17;30.89;48.94;;
37833;Laerm;23678;48.778;9.160;2023-06-24T05:01:14;36.89;29.92;41.06;;
37833;Laerm;23678;48.778;9.160;2023-06-24T05:03:58;36.82;26.91;43.54;;
37833;Laerm;23678;48.778;9.160;2023-06-24T05:06:42;37.69;23.90;42.58;;
37833;Laerm;23678;48.778;9.160;2023-06-24T05:09:26;38.66;32.35;42.65;;
37833;Laerm;23678;48.778;9.160;2023-06-24T05:12:10;38.28;30.89;47.28;;
37833;Laerm;23678;48.778;9.160;2023-06-24T05:14:54;38.90;31.68;49.56;;
37833;Laerm;23678;48.778;9.160;2023-06-24T05:17:39;38.39;29.92;48.29;;
37833;Laerm;23678;48.778;9.160;2023-06-24T05:20:23;37.83;30.89;42.82;;
37833;Laerm;23678;48.778;9.160;2023-06-24T05:23:07;37.91;28.67;49.97;;
37833;Laerm;23678;48.778;9.160;2023-06-24T05:25:51;40.94;32.35;55.57;;
37833;Laerm;23678;48.778;9.160;2023-06-24T05:28:34;39.30;30.89;51.06;;
37833;Laerm;23678;48.778;9.160;2023-06-24T05:31:19;38.02;30.89;46.35;;
37833;Laerm;23678;48.778;9.160;2023-06-24T05:34:03;37.14;29.92;44.15;;
37833;Laerm;23678;48.778;9.160;2023-06-24T05:36:46;38.03;30.89;47.40;;
37833;Laerm;23678;48.778;9.160;2023-06-24T05:39:31;37.88;28.67;46.66;;
37833;Laerm;23678;48.778;9.160;2023-06-24T05:42:15;37.68;30.54;43.81;;
37833;Laerm;23678;48.778;9.160;2023-06-24T05:44:59;40.29;32.35;48.34;;
37833;Laerm;23678;48.778;9.160;2023-06-24T05:47:42;37.66;30.89;42.03;;
37833;Laerm;23678;48.778;9.160;2023-06-24T05:50:26;37.15;23.90;41.46;;
37833;Laerm;23678;48.778;9.160;2023-06-24T05:53:10;37.14;29.92;44.76;;
37833;Laerm;23678;48.778;9.160;2023-06-24T05:55:54;39.57;29.92;57.63;;
37833;Laerm;23678;48.778;9.160;2023-06-24T05:58:38;37.42;29.92;43.94;;
37833;Laerm;23678;48.778;9.160;2023-06-24T06:01:22;37.73;30.89;46.66;;
37833;Laerm;23678;48.778;9.160;2023-06-24T06:04:06;37.62;29.92;47.96;;
37833;Laerm;23678;48.778;9.160;2023-06-24T06:06:56;39.73;32.35;47.14;;
37833;Laerm;23678;48.778;9.160;2023-06-24T06:09:41;40.49;31.68;50.10;;
37833;Laerm;23678;48.778;9.160;2023-06-24T06:12:25;37.61;28.67;42.76;;
37833;Laerm;23678;48.778;9.160;2023-06-24T06:15:09;37.84;31.68;44.58;;
37833;Laerm;23678;48.778;9.160;2023-06-24T06:17:54;38.30;28.67;47.77;;
37833;Laerm;23678;48.778;9.160;2023-06-24T06:20:38;38.01;30.89;56.92;;
37833;Laerm;23678;48.778;9.160;2023-06-24T06:23:22;38.17;28.67;48.07;;
37833;Laerm;23678;48.778;9.160;2023-06-24T06:26:06;38.78;31.68;48.37;;
37833;Laerm;23678;48.778;9.160;2023-06-24T06:28:50;38.33;30.89;48.91;;
37833;Laerm;23678;48.778;9.160;2023-06-24T06:31:35;38.15;30.54;48.07;;
37833;Laerm;23678;48.778;9.160;2023-06-24T06:34:19;39.63;30.89;51.89;;
37833;Laerm;23678;48.778;9.160;2023-06-24T06:37:04;40.44;32.35;53.56;;
37833;Laerm;23678;48.778;9.160;2023-06-24T06:39:48;39.11;31.68;47.28;;
37833;Laerm;23678;48.778;9.160;2023-06-24T06:42:32;40.27;31.68;49.90;;
37833;Laerm;23678;48.778;9.160;2023-06-24T06:45:16;39.82;30.89;49.52;;
37833;Laerm;23678;48.778;9.160;2023-06-24T06:47:59;40.72;31.68;51.73;;
37833;Laerm;23678;48.778;9.160;2023-06-24T06:50:44;40.03;30.89;50.98;;
37833;Laerm;23678;48.778;9.160;2023-06-24T06:53:28;37.77;30.89;42.41;;
37833;Laerm;23678;48.778;9.160;2023-06-24T06:56:21;39.60;30.89;49.46;;
37833;Laerm;23678;48.778;9.160;2023-06-24T06:59:08;38.50;28.67;49.98;;
37833;Laerm;23678;48.778;9.160;2023-06-24T07:01:53;41.70;33.44;50.32;;
37833;Laerm;23678;48.778;9.160;2023-06-24T07:04:37;39.16;31.33;49.03;;
37833;Laerm;23678;48.778;9.160;2023-06-24T07:07:21;40.01;29.92;50.58;;
37833;Laerm;23678;48.778;9.160;2023-06-24T07:10:05;38.85;30.89;46.76;;
37833;Laerm;23678;48.778;9.160;2023-06-24T07:12:49;37.51;29.92;43.34;;
37833;Laerm;23678;48.778;9.160;2023-06-24T07:15:33;37.59;29.92;43.90;;
37833;Laerm;23678;48.778;9.160;2023-06-24T07:18:17;39.08;32.93;44.39;;
37833;Laerm;23678;48.778;9.160;2023-06-24T07:21:01;39.02;31.68;51.62;;
37833;Laerm;23678;48.778;9.160;2023-06-24T07:27:07;39.91;30.89;50.31;;
37833;Laerm;23678;48.778;9.160;2023-06-24T07:29:51;40.09;32.93;52.21;;
37833;Laerm;23678;48.778;9.160;2023-06-24T07:32:35;40.51;32.35;54.84;;
37833;Laerm;23678;48.778;9.160;2023-06-24T07:35:18;39.78;29.92;51.86;;
37833;Laerm;23678;48.778;9.160;2023-06-24T07:38:02;42.06;35.36;55.05;;
37833;Laerm;23678;48.778;9.160;2023-06-24T07:40:46;41.32;34.69;54.35;;
37833;Laerm;23678;48.778;9.160;2023-06-24T07:43:30;38.45;31.68;59.10;;
37833;Laerm;23678;48.778;9.160;2023-06-24T07:46:14;39.54;30.89;50.85;;
37833;Laerm;23678;48.778;9.160;2023-06-24T07:48:58;38.20;31.68;50.57;;
37833;Laerm;23678;48.778;9.160;2023-06-24T07:51:43;38.77;32.93;46.95;;
37833;Laerm;23678;48.778;9.160;2023-06-24T07:54:28;40.73;31.68;47.54;;
37833;Laerm;23678;48.778;9.160;2023-06-24T07:57:12;39.45;30.89;51.62;;
37833;Laerm;23678;48.778;9.160;2023-06-24T07:59:56;38.19;30.89;47.59;;
37833;Laerm;23678;48.778;9.160;2023-06-24T08:02:43;40.36;31.68;49.27;;
37833;Laerm;23678;48.778;9.160;2023-06-24T08:05:27;39.17;31.68;45.69;;
37833;Laerm;23678;48.778;9.160;2023-06-24T08:08:11;38.98;29.92;47.81;;
37833;Laerm;23678;48.778;9.160;2023-06-24T08:10:55;40.68;31.68;51.47;;
37833;Laerm;23678;48.778;9.160;2023-06-24T08:13:39;39.34;30.89;48.70;;
37833;Laerm;23678;48.778;9.160;2023-06-24T08:16:23;39.24;28.67;53.18;;
37833;Laerm;23678;48.778;9.160;2023-06-24T08:19:07;39.98;29.92;46.82;;
37833;Laerm;23678;48.778;9.160;2023-06-24T08:21:52;38.68;30.89;48.91;;
37833;Laerm;23678;48.778;9.160;2023-06-24T08:24:36;39.78;31.68;48.51;;
37833;Laerm;23678;48.778;9.160;2023-06-24T08:27:19;39.77;32.93;47.63;;
37833;Laerm;23678;48.778;9.160;2023-06-24T08:30:04;40.10;32.35;51.30;;
37833;Laerm;23678;48.778;9.160;2023-06-24T08:32:48;39.60;31.68;47.70;;
37833;Laerm;23678;48.778;9.160;2023-06-24T08:35:32;39.82;30.89;47.63;;
37833;Laerm;23678;48.778;9.160;2023-06-24T08:38:16;40.80;30.89;51.36;;
37833;Laerm;23678;48.778;9.160;2023-06-24T08:41:00;39.12;30.89;48.12;;
37833;Laerm;23678;48.778;9.160;2023-06-24T08:43:44;40.08;32.35;51.88;;
37833;Laerm;23678;48.778;9.160;2023-06-24T08:46:28;39.35;30.89;50.93;;
37833;Laerm;23678;48.778;9.160;2023-06-24T08:52:05;39.82;32.35;54.45;;
37833;Laerm;23678;48.778;9.160;2023-06-24T08:54:53;40.32;32.35;49.55;;
37833;Laerm;23678;48.778;9.160;2023-06-24T08:57:39;39.67;31.68;48.25;;
37833;Laerm;23678;48.778;9.160;2023-06-24T09:00:23;40.20;34.31;46.97;;
37833;Laerm;23678;48.778;9.160;2023-06-24T09:03:08;40.18;31.68;54.10;;
37833;Laerm;23678;48.778;9.160;2023-06-24T09:05:52;40.97;31.68;50.88;;
37833;Laerm;23678;48.778;9.160;2023-06-24T09:08:36;40.75;31.68;53.99;;
37833;Laerm;23678;48.778;9.160;2023-06-24T09:11:26;38.73;30.89;55.94;;
37833;Laerm;23678;48.778;9.160;2023-06-24T09:14:11;38.86;31.68;50.50;;
37833;Laerm;23678;48.778;9.160;2023-06-24T09:19:40;38.99;31.68;50.73;;
37833;Laerm;23678;48.778;9.160;2023-06-24T09:22:27;38.98;29.57;47.32;;
37833;Laerm;23678;48.778;9.160;2023-06-24T09:25:18;39.98;30.89;54.33;;
37833;Laerm;23678;48.778;9.160;2023-06-24T09:28:05;40.01;32.35;54.11;;
37833;Laerm;23678;48.778;9.160;2023-06-24T09:31:03;39.09;30.89;50.94;;
37833;Laerm;23678;48.778;9.160;2023-06-24T09:33:48;40.82;30.89;52.98;;
37833;Laerm;23678;48.778;9.160;2023-06-24T09:36:32;41.94;33.90;53.21;;
37833;Laerm;23678;48.778;9.160;2023-06-24T09:39:16;39.86;30.89;51.61;;
37833;Laerm;23678;48.778;9.160;2023-06-24T09:42:00;40.77;32.58;54.68;;
37833;Laerm;23678;48.778;9.160;2023-06-24T09:44:45;39.45;28.67;50.24;;
37833;Laerm;23678;48.778;9.160;2023-06-24T09:47:35;40.06;31.68;52.12;;
37833;Laerm;23678;48.778;9.160;2023-06-24T09:53:26;38.97;32.35;46.69;;
37833;Laerm;23678;48.778;9.160;2023-06-24T09:56:10;39.98;32.35;44.94;;
37833;Laerm;23678;48.778;9.160;2023-06-24T09:58:54;38.50;30.89;43.86;;
37833;Laerm;23678;48.778;9.160;2023-06-24T10:01:38;39.55;28.67;51.41;;
37833;Laerm;23678;48.778;9.160;2023-06-24T10:04:23;40.57;32.93;54.60;;
37833;Laerm;23678;48.778;9.160;2023-06-24T10:07:08;39.92;29.92;48.34;;
37833;Laerm;23678;48.778;9.160;2023-06-24T10:09:52;40.56;31.68;56.52;;
37833;Laerm;23678;48.778;9.160;2023-06-24T10:12:37;39.56;31.68;45.80;;
37833;Laerm;23678;48.778;9.160;2023-06-24T10:15:21;38.81;31.68;49.14;;
37833;Laerm;23678;48.778;9.160;2023-06-24T10:21:08;39.22;30.89;51.82;;
37833;Laerm;23678;48.778;9.160;2023-06-24T10:23:52;39.88;32.35;48.12;;
37833;Laerm;23678;48.778;9.160;2023-06-24T10:26:42;39.69;28.67;54.76;;
37833;Laerm;23678;48.778;9.160;2023-06-24T10:29:36;42.24;32.35;55.96;;
37833;Laerm;23678;48.778;9.160;2023-06-24T10:32:21;40.50;32.93;49.04;;
37833;Laerm;23678;48.778;9.160;2023-06-24T10:35:05;39.80;33.44;50.12;;
37833;Laerm;23678;48.778;9.160;2023-06-24T10:37:56;40.64;32.93;48.98;;
37833;Laerm;23678;48.778;9.160;2023-06-24T10:40:44;40.19;31.68;53.80;;
37833;Laerm;23678;48.778;9.160;2023-06-24T10:43:28;39.75;30.89;52.92;;
37833;Laerm;23678;48.778;9.160;2023-06-24T10:46:14;41.61;32.35;55.10;;
37833;Laerm;23678;48.778;9.160;2023-06-24T10:49:02;40.32;32.35;47.30;;
37833;Laerm;23678;48.778;9.160;2023-06-24T10:51:46;39.84;31.68;48.81;;
37833;Laerm;23678;48.778;9.160;2023-06-24T10:54:30;40.27;31.68;53.57;;
37833;Laerm;23678;48.778;9.160;2023-06-24T10:57:14;40.68;32.93;53.38;;
37833;Laerm;23678;48.778;9.160;2023-06-24T10:59:59;40.36;34.31;50.85;;
37833;Laerm;23678;48.778;9.160;2023-06-24T11:02:44;41.21;32.93;50.37;;
37833;Laerm;23678;48.778;9.160;2023-06-24T11:05:30;40.61;30.54;52.80;;
37833;Laerm;23678;48.778;9.160;2023-06-24T11:08:14;39.95;30.89;56.49;;
37833;Laerm;23678;48.778;9.160;2023-06-24T11:10:58;39.26;32.35;56.43;;
37833;Laerm;23678;48.778;9.160;2023-06-24T11:13:44;38.46;31.68;46.94;;
37833;Laerm;23678;48.778;9.160;2023-06-24T11:16:31;40.29;31.68;44.94;;
37833;Laerm;23678;48.778;9.160;2023-06-24T11:19:15;39.95;31.68;46.71;;
37833;Laerm;23678;48.778;9.160;2023-06-24T11:22:12;41.26;32.93;52.82;;
37833;Laerm;23678;48.778;9.160;2023-06-24T11:24:58;39.57;30.89;50.79;;
37833;Laerm;23678;48.778;9.160;2023-06-24T11:27:42;41.79;31.68;54.52;;
37833;Laerm;23678;48.778;9.160;2023-06-24T11:30:26;39.69;30.89;50.09;;
37833;Laerm;23678;48.778;9.160;2023-06-24T11:33:10;39.87;32.35;45.63;;
37833;Laerm;23678;48.778;9.160;2023-06-24T11:35:53;38.36;31.68;45.57;;
37833;Laerm;23678;48.778;9.160;2023-06-24T11:38:37;39.19;30.89;48.91;;
37833;Laerm;23678;48.778;9.160;2023-06-24T11:41:21;38.45;29.92;47.83;;
37833;Laerm;23678;48.778;9.160;2023-06-24T11:47:17;42.15;32.93;51.70;;
37833;Laerm;23678;48.778;9.160;2023-06-24T11:50:07;40.48;30.89;54.24;;
37833;Laerm;23678;48.778;9.160;2023-06-24T11:52:51;43.82;33.44;63.04;;
37833;Laerm;23678;48.778;9.160;2023-06-24T11:55:37;41.71;34.31;50.42;;
37833;Laerm;23678;48.778;9.160;2023-06-24T11:58:21;40.56;32.93;50.93;;
37833;Laerm;23678;48.778;9.160;2023-06-24T12:01:08;39.16;32.35;47.28;;
37833;Laerm;23678;48.778;9.160;2023-06-24T12:03:52;40.88;32.93;54.19;;
37833;Laerm;23678;48.778;9.160;2023-06-24T12:06:36;39.70;30.89;52.27;;
37833;Laerm;23678;48.778;9.160;2023-06-24T12:09:20;40.05;32.35;49.33;;
37833;Laerm;23678;48.778;9.160;2023-06-24T12:12:04;38.88;31.68;48.00;;
37833;Laerm;23678;48.778;9.160;2023-06-24T12:14:50;40.06;31.68;49.41;;
37833;Laerm;23678;48.778;9.160;2023-06-24T12:17:34;38.96;32.35;46.23;;
37833;Laerm;23678;48.778;9.160;2023-06-24T12:20:18;39.26;32.35;58.89;;
37833;Laerm;23678;48.778;9.160;2023-06-24T12:23:02;38.94;32.35;43.94;;
37833;Laerm;23678;48.778;9.160;2023-06-24T12:25:49;40.00;31.68;46.59;;
37833;Laerm;23678;48.778;9.160;2023-06-24T12:31:48;39.77;31.68;50.04;;
37833;Laerm;23678;48.778;9.160;2023-06-24T12:34:32;39.53;29.92;48.67;;
37833;Laerm;23678;48.778;9.160;2023-06-24T12:37:16;39.02;30.89;45.94;;
37833;Laerm;23678;48.778;9.160;2023-06-24T12:40:00;40.96;33.90;44.90;;
37833;Laerm;23678;48.778;9.160;2023-06-24T12:42:45;39.64;33.44;50.87;;
37833;Laerm;23678;48.778;9.160;2023-06-24T12:45:29;39.92;33.44;52.79;;
37833;Laerm;23678;48.778;9.160;2023-06-24T12:48:13;39.99;32.93;53.39;;
37833;Laerm;23678;48.778;9.160;2023-06-24T12:50:57;39.66;30.54;49.47;;
37833;Laerm;23678;48.778;9.160;2023-06-24T12:53:41;40.59;30.89;49.53;;
37833;Laerm;23678;48.778;9.160;2023-06-24T12:56:25;37.96;31.68;42.98;;
37833;Laerm;23678;48.778;9.160;2023-06-24T12:59:09;40.13;30.89;57.69;;
37833;Laerm;23678;48.778;9.160;2023-06-24T13:01:53;41.14;32.35;65.21;;
37833;Laerm;23678;48.778;9.160;2023-06-24T13:04:37;40.24;31.68;51.53;;
37833;Laerm;23678;48.778;9.160;2023-06-24T13:07:21;39.50;30.89;50.22;;
37833;Laerm;23678;48.778;9.160;2023-06-24T13:10:05;39.24;28.32;49.37;;
37833;Laerm;23678;48.778;9.160;2023-06-24T13:12:52;40.54;31.68;51.54;;
37833;Laerm;23678;48.778;9.160;2023-06-24T13:15:36;39.98;29.57;44.94;;
37833;Laerm;23678;48.778;9.160;2023-06-24T13:18:20;39.08;30.89;48.92;;
37833;Laerm;23678;48.778;9.160;2023-06-24T13:21:04;38.94;30.89;53.24;;
37833;Laerm;23678;48.778;9.160;2023-06-24T13:23:48;39.69;32.35;43.77;;
37833;Laerm;23678;48.778;9.160;2023-06-24T13:26:32;39.32;29.57;46.45;;
37833;Laerm;23678;48.778;9.160;2023-06-24T13:29:16;42.09;32.35;56.27;;
37833;Laerm;23678;48.778;9.160;2023-06-24T13:32:00;38.35;31.33;46.07;;
37833;Laerm;23678;48.778;9.160;2023-06-24T13:34:44;38.70;29.92;51.54;;
37833;Laerm;23678;48.778;9.160;2023-06-24T13:37:28;38.84;31.68;47.16;;
37833;Laerm;23678;48.778;9.160;2023-06-24T13:40:12;39.23;31.68;49.79;;
37833;Laerm;23678;48.778;9.160;2023-06-24T13:42:55;40.09;32.35;50.39;;
37833;Laerm;23678;48.778;9.160;2023-06-24T13:45:40;39.10;32.35;46.95;;
37833;Laerm;23678;48.778;9.160;2023-06-24T13:48:23;38.58;29.57;46.66;;
37833;Laerm;23678;48.778;9.160;2023-06-24T13:51:07;38.66;28.67;47.74;;
37833;Laerm;23678;48.778;9.160;2023-06-24T13:53:52;40.44;31.68;58.11;;
37833;Laerm;23678;48.778;9.160;2023-06-24T13:56:36;39.54;29.92;50.38;;
37833;Laerm;23678;48.778;9.160;2023-06-24T13:59:20;40.45;32.93;51.82;;
37833;Laerm;23678;48.778;9.160;2023-06-24T14:02:04;39.66;30.89;52.74;;
37833;Laerm;23678;48.778;9.160;2023-06-24T14:04:48;37.93;30.89;45.04;;
37833;Laerm;23678;48.778;9.160;2023-06-24T14:07:33;40.21;31.33;45.39;;
37833;Laerm;23678;48.778;9.160;2023-06-24T14:10:17;38.62;31.68;52.53;;
37833;Laerm;23678;48.778;9.160;2023-06-24T14:13:01;39.75;32.35;47.24;;
37833;Laerm;23678;48.778;9.160;2023-06-24T14:15:45;38.40;32.35;43.90;;
37833;Laerm;23678;48.778;9.160;2023-06-24T14:18:29;39.75;30.89;53.46;;
37833;Laerm;23678;48.778;9.160;2023-06-24T14:21:16;39.58;30.89;51.30;;
37833;Laerm;23678;48.778;9.160;2023-06-24T14:24:00;40.93;30.89;56.43;;
37833;Laerm;23678;48.778;9.160;2023-06-24T14:26:44;38.65;31.68;46.43;;
37833;Laerm;23678;48.778;9.160;2023-06-24T14:29:32;39.54;30.89;48.64;;
37833;Laerm;23678;48.778;9.160;2023-06-24T14:32:16;39.13;31.68;46.25;;
37833;Laerm;23678;48.778;9.160;2023-06-24T14:35:00;39.05;32.35;44.11;;
37833;Laerm;23678;48.778;9.160;2023-06-24T14:37:44;40.36;33.44;48.10;;
37833;Laerm;23678;48.778;9.160;2023-06-24T14:40:28;40.19;28.67;49.77;;
37833;Laerm;23678;48.778;9.160;2023-06-24T14:43:12;38.51;32.35;43.14;;
37833;Laerm;23678;48.778;9.160;2023-06-24T14:45:56;39.84;32.93;46.97;;
37833;Laerm;23678;48.778;9.160;2023-06-24T14:48:41;39.54;32.35;51.24;;
37833;Laerm;23678;48.778;9.160;2023-06-24T14:51:25;40.98;32.35;55.61;;
37833;Laerm;23678;48.778;9.160;2023-06-24T14:54:09;41.27;32.35;54.33;;
37833;Laerm;23678;48.778;9.160;2023-06-24T14:56:53;39.69;33.90;49.69;;
37833;Laerm;23678;48.778;9.160;2023-06-24T14:59:37;40.30;33.90;53.57;;
37833;Laerm;23678;48.778;9.160;2023-06-24T15:02:21;39.46;33.90;47.06;;
37833;Laerm;23678;48.778;9.160;2023-06-24T15:05:05;39.99;33.44;58.49;;
37833;Laerm;23678;48.778;9.160;2023-06-24T15:07:49;38.65;26.91;47.61;;
37833;Laerm;23678;48.778;9.160;2023-06-24T15:10:34;39.85;31.68;48.96;;
37833;Laerm;23678;48.778;9.160;2023-06-24T15:13:19;38.04;31.68;42.93;;
37833;Laerm;23678;48.778;9.160;2023-06-24T15:16:03;40.20;32.35;51.27;;
37833;Laerm;23678;48.778;9.160;2023-06-24T15:18:47;40.72;32.93;51.63;;
37833;Laerm;23678;48.778;9.160;2023-06-24T15:21:32;39.95;32.35;48.12;;
37833;Laerm;23678;48.778;9.160;2023-06-24T15:24:16;39.34;32.35;47.44;;
37833;Laerm;23678;48.778;9.160;2023-06-24T15:27:00;38.96;30.89;51.78;;
37833;Laerm;23678;48.778;9.160;2023-06-24T15:29:44;41.43;33.90;52.24;;
37833;Laerm;23678;48.778;9.160;2023-06-24T15:32:27;38.74;30.89;47.00;;
37833;Laerm;23678;48.778;9.160;2023-06-24T15:35:12;41.06;34.69;50.45;;
37833;Laerm;23678;48.778;9.160;2023-06-24T15:37:56;39.28;31.68;48.18;;
37833;Laerm;23678;48.778;9.160;2023-06-24T15:40:40;39.11;32.35;45.57;;
37833;Laerm;23678;48.778;9.160;2023-06-24T15:43:24;42.03;33.90;60.58;;
37833;Laerm;23678;48.778;9.160;2023-06-24T15:46:08;39.15;32.35;48.15;;
37833;Laerm;23678;48.778;9.160;2023-06-24T15:48:53;41.98;32.93;53.96;;
37833;Laerm;23678;48.778;9.160;2023-06-24T15:51:37;39.77;33.44;46.02;;